Terminal Aerodrome Forecast
Issued by NWS

Home | Current Version | Previous Version | Graphics & Text | Print | Product List | Glossary Off
Versions: 1 2 3 4 5 6 7 8 9 10 11 12 13 14 15 16 17 18 19 20 21

000
FTUS43 KDDC 241921 AAB
TAFHYS
TAF AMD
KHYS 241921Z 2419/2518 35018KT P6SM -SN BKN019 OVC023
      TEMPO 2419/2421 5SM -SHSN OVC020
     FM250000 36010G20KT P6SM BKN050
     FM250600 30006KT P6SM SCT200
     FM251200 27006KT P6SM SCT100
     FM251500 22009KT P6SM SCT100=

USA.gov is the U.S. government's official web portal to all federal, state and local government web resources and services.